Letcher, Kentucky
Current Conditions -  °F | °C
As of 6:55 PM on Sunday 23 Nov 2014 (Local Time) from KLNP Reporting Station
Moderate Rain Moderate Rain  
Wind Chill: 52°   Ceiling: 400
Heat Index: 52°   Visibility: 10mi
Dew Point: 52°   Wind: 12mph
Humidity: 100%   Direction: 160°SSE
Pressure: 29.68"   Gusts: 16mph
Location:  37.15°N, 82.96°W
Report Text: KLNP 232355Z AUTO 16010G14KT 120V190 10SM RA OVC004 11/11 A2968 RMK AO2 P0014
Loading
Personal Weather Stations






























Interactive Weather Map New forecast layout! Learn more

10-Day Weather Forecast

Advertisements
Track Severe Weather on mobile